createdAt,value
2023-01-25T00:00:07.308Z,88.92
2023-01-25T00:02:54.473Z,89.13
2023-01-25T00:05:24.838Z,89.21
2023-01-25T00:07:51.963Z,88.79
2023-01-25T00:10:20.068Z,89.19
2023-01-25T00:12:47.109Z,89.22
2023-01-25T00:15:15.193Z,89.35
2023-01-25T00:17:42.394Z,89.44
2023-01-25T00:20:10.830Z,89.06
2023-01-25T00:22:38.221Z,89.42
2023-01-25T00:25:06.343Z,89.39
2023-01-25T00:27:55.627Z,89.10
2023-01-25T00:30:39.450Z,89.27
2023-01-25T00:33:19.488Z,89.29
2023-01-25T00:35:48.939Z,89.43
2023-01-25T00:38:30.946Z,89.41
2023-01-25T00:40:58.948Z,89.20
2023-01-25T00:43:26.210Z,89.13
2023-01-25T00:46:01.029Z,88.96
2023-01-25T00:48:28.275Z,89.44
2023-01-25T00:51:00.133Z,89.10
2023-01-25T00:53:27.787Z,89.25
2023-01-25T00:55:55.297Z,89.26
2023-01-25T00:58:22.653Z,88.96
2023-01-25T01:00:50.083Z,88.79
2023-01-25T01:03:17.104Z,88.90
2023-01-25T01:05:44.419Z,89.17
2023-01-25T01:08:16.458Z,88.89
2023-01-25T01:10:45.770Z,88.59
2023-01-25T01:13:12.800Z,88.95
2023-01-25T01:15:40.379Z,88.72
2023-01-25T01:18:07.388Z,89.04
2023-01-25T01:20:34.670Z,88.38
2023-01-25T01:23:01.668Z,88.46
2023-01-25T01:25:28.935Z,88.69
2023-01-25T01:27:55.988Z,88.38
2023-01-25T01:30:23.867Z,88.90
2023-01-25T01:32:51.782Z,88.59
2023-01-25T01:35:19.335Z,88.46
2023-01-25T01:37:46.337Z,88.88
2023-01-25T01:40:17.725Z,89.25
2023-01-25T01:43:07.048Z,88.83
2023-01-25T01:45:46.818Z,89.26
2023-01-25T01:48:19.828Z,88.96
2023-01-25T01:50:51.565Z,89.18
2023-01-25T01:53:19.942Z,89.04
2023-01-25T01:55:48.128Z,89.03
2023-01-25T01:58:15.218Z,88.95
2023-01-25T02:00:42.546Z,88.77
2023-01-25T02:03:11.832Z,88.77
2023-01-25T02:05:47.748Z,89.43
2023-01-25T02:08:15.673Z,89.26
2023-01-25T02:10:45.583Z,89.06
2023-01-25T02:13:12.753Z,89.48
2023-01-25T02:15:49.571Z,89.65
2023-01-25T02:18:19.242Z,89.77
2023-01-25T02:20:58.045Z,89.30
2023-01-25T02:23:33.360Z,89.49
2023-01-25T02:26:03.823Z,89.90
2023-01-25T02:28:43.793Z,89.93
2023-01-25T02:31:11.225Z,89.80
2023-01-25T02:33:38.322Z,90.33
2023-01-25T02:36:08.922Z,89.45
2023-01-25T02:38:39.217Z,89.67
2023-01-25T02:41:40.391Z,89.51
2023-01-25T02:44:15.491Z,89.51
2023-01-25T02:46:45.776Z,89.49
2023-01-25T02:49:12.814Z,89.69
2023-01-25T02:51:43.567Z,89.93
2023-01-25T02:54:12.737Z,89.88
2023-01-25T02:56:40.946Z,89.59
2023-01-25T02:59:09.061Z,89.53
2023-01-25T03:01:39.002Z,89.49
2023-01-25T03:04:06.137Z,89.42
2023-01-25T03:06:34.662Z,89.40
2023-01-25T03:09:05.838Z,89.82
2023-01-25T03:11:33.841Z,89.72
2023-01-25T03:14:01.187Z,89.55
2023-01-25T03:16:28.699Z,89.74
2023-01-25T03:18:56.323Z,89.39
2023-01-25T03:21:24.238Z,89.75
2023-01-25T03:24:00.170Z,89.74
2023-01-25T03:26:28.516Z,89.83
2023-01-25T03:28:56.857Z,89.88
2023-01-25T03:31:25.910Z,89.95
2023-01-25T03:33:53.050Z,89.48
2023-01-25T03:36:21.132Z,89.82
2023-01-25T03:38:48.156Z,89.82
2023-01-25T03:41:15.633Z,89.77
2023-01-25T03:43:42.648Z,89.69
2023-01-25T03:46:10.227Z,90.01
2023-01-25T03:48:38.309Z,89.77
2023-01-25T03:51:05.921Z,89.69
2023-01-25T03:53:33.083Z,90.00
2023-01-25T03:56:09.294Z,90.18
2023-01-25T03:58:39.865Z,89.94
2023-01-25T04:01:07.999Z,90.07
2023-01-25T04:03:35.334Z,89.63
2023-01-25T04:06:03.161Z,89.77
2023-01-25T04:08:30.661Z,89.71
2023-01-25T04:11:02.834Z,89.62
2023-01-25T04:13:30.081Z,89.82
2023-01-25T04:15:57.611Z,89.86
2023-01-25T04:18:24.583Z,89.48
2023-01-25T04:20:57.102Z,89.61
2023-01-25T04:23:26.255Z,89.42
2023-01-25T04:25:58.829Z,89.26
2023-01-25T04:28:27.418Z,89.60
2023-01-25T04:30:56.580Z,89.62
2023-01-25T04:33:24.569Z,89.81
2023-01-25T04:35:52.782Z,89.57
2023-01-25T04:38:20.291Z,90.15
2023-01-25T04:40:50.658Z,90.05
2023-01-25T04:43:19.664Z,90.16
2023-01-25T04:45:48.175Z,90.01
2023-01-25T04:48:20.376Z,90.10
2023-01-25T04:50:50.059Z,90.03
2023-01-25T04:53:17.050Z,90.08
2023-01-25T04:55:47.412Z,89.56
2023-01-25T04:58:16.010Z,89.79
2023-01-25T05:00:43.512Z,89.44
2023-01-25T05:03:10.759Z,89.66
2023-01-25T05:05:38.522Z,89.86
2023-01-25T05:08:05.709Z,89.64
2023-01-25T05:10:33.539Z,89.58
2023-01-25T05:13:03.156Z,89.48
2023-01-25T05:18:31.094Z,89.54
2023-01-25T05:24:07.653Z,89.64
2023-01-25T05:26:53.521Z,89.38
2023-01-25T05:32:23.092Z,89.31
2023-01-25T05:37:38.175Z,89.30
2023-01-25T05:40:06.523Z,89.12
2023-01-25T05:45:17.585Z,88.93
2023-01-25T05:47:45.154Z,89.25
2023-01-25T05:50:16.246Z,88.67
2023-01-25T05:52:45.767Z,89.30
2023-01-25T05:55:15.367Z,88.64
2023-01-25T05:57:43.165Z,88.99
2023-01-25T06:00:11.713Z,89.14
2023-01-25T06:02:38.900Z,89.12
2023-01-25T06:05:07.268Z,89.06
2023-01-25T06:07:38.735Z,88.80
2023-01-25T06:10:07.383Z,88.71
2023-01-25T06:12:35.246Z,89.07
2023-01-25T06:15:02.732Z,88.81
2023-01-25T06:17:29.818Z,88.25
2023-01-25T06:19:59.946Z,88.14
2023-01-25T06:22:29.544Z,88.35
2023-01-25T06:24:58.188Z,88.50
2023-01-25T06:27:25.654Z,88.34
2023-01-25T06:32:38.174Z,89.17
2023-01-25T06:35:12.021Z,89.15
2023-01-25T06:37:39.132Z,89.11
2023-01-25T06:43:16.701Z,89.23
2023-01-25T06:45:44.091Z,89.31
2023-01-25T06:48:12.863Z,89.33
2023-01-25T06:50:47.188Z,89.41
2023-01-25T06:53:15.451Z,89.27
2023-01-25T06:55:42.577Z,89.44
2023-01-25T06:58:12.849Z,89.31
2023-01-25T07:00:39.856Z,89.68
2023-01-25T07:03:08.513Z,89.61
2023-01-25T07:05:35.594Z,90.16
2023-01-25T07:08:06.064Z,89.72
2023-01-25T07:10:33.919Z,90.07
2023-01-25T07:13:02.492Z,89.50
2023-01-25T07:15:31.950Z,90.00
2023-01-25T07:18:16.496Z,90.29
2023-01-25T07:20:44.139Z,90.02
2023-01-25T07:23:11.249Z,90.23
2023-01-25T07:25:43.914Z,90.42
2023-01-25T07:28:10.935Z,90.48
2023-01-25T07:30:38.315Z,90.45
2023-01-25T07:33:08.433Z,90.05
2023-01-25T07:35:38.372Z,90.35
2023-01-25T07:38:05.251Z,90.13
2023-01-25T07:40:32.669Z,90.57
2023-01-25T07:43:01.185Z,90.29
2023-01-25T07:48:22.724Z,89.57
2023-01-25T07:51:11.743Z,88.83
2023-01-25T07:56:24.208Z,88.96
2023-01-25T07:58:54.736Z,89.29
2023-01-25T08:01:24.724Z,89.29
2023-01-25T08:03:56.521Z,89.25
2023-01-25T08:06:42.242Z,88.39
2023-01-25T08:09:24.345Z,88.20
2023-01-25T08:11:53.713Z,88.03
2023-01-25T08:14:20.908Z,88.21
2023-01-25T08:16:48.283Z,88.35
2023-01-25T08:19:16.048Z,87.72
2023-01-25T08:21:46.672Z,88.44
2023-01-25T08:24:16.520Z,87.91
2023-01-25T08:26:53.896Z,87.84
2023-01-25T08:32:08.534Z,88.15
2023-01-25T08:34:35.563Z,88.33
2023-01-25T08:37:02.986Z,88.87
2023-01-25T08:39:30.323Z,88.57
2023-01-25T08:41:57.838Z,88.40
2023-01-25T08:44:26.405Z,88.21
2023-01-25T08:46:53.869Z,88.17
2023-01-25T08:49:21.026Z,87.77
2023-01-25T08:51:50.343Z,88.08
2023-01-25T08:54:17.494Z,87.50
2023-01-25T08:56:45.551Z,87.21
2023-01-25T08:59:13.918Z,87.46
2023-01-25T09:01:41.597Z,88.03
2023-01-25T09:04:08.678Z,87.98
2023-01-25T09:09:25.051Z,87.66
2023-01-25T09:11:55.753Z,88.02
2023-01-25T09:14:23.268Z,87.87
2023-01-25T09:16:50.818Z,88.15
2023-01-25T09:19:17.951Z,88.26
2023-01-25T09:21:49.437Z,87.73
2023-01-25T09:24:18.991Z,88.21
2023-01-25T09:26:56.016Z,88.16
2023-01-25T09:29:26.581Z,88.18
2023-01-25T09:31:55.156Z,87.79
2023-01-25T09:34:22.699Z,88.17
2023-01-25T09:36:50.205Z,87.58
2023-01-25T09:39:17.208Z,87.78
2023-01-25T09:42:14.947Z,88.19
2023-01-25T09:44:53.470Z,87.59
2023-01-25T09:47:34.873Z,87.49
2023-01-25T09:50:38.687Z,87.71
2023-01-25T09:53:21.761Z,86.94
2023-01-25T09:55:59.683Z,86.92
2023-01-25T09:58:50.845Z,86.82
2023-01-25T10:01:50.026Z,86.73
2023-01-25T10:04:27.811Z,86.87
2023-01-25T10:07:02.033Z,86.62
2023-01-25T10:09:52.406Z,86.53
2023-01-25T10:12:24.666Z,86.16
2023-01-25T10:14:53.077Z,86.50
2023-01-25T10:17:38.923Z,86.37
2023-01-25T10:20:15.590Z,86.21
2023-01-25T10:23:00.059Z,86.09
2023-01-25T10:25:51.997Z,85.91
2023-01-25T10:28:41.352Z,85.66
2023-01-25T10:31:22.792Z,86.06
2023-01-25T10:37:11.541Z,86.19
2023-01-25T10:39:47.306Z,86.35
2023-01-25T10:42:16.753Z,85.82
2023-01-25T10:44:43.939Z,86.13
2023-01-25T10:47:35.695Z,87.13
2023-01-25T10:50:03.268Z,86.71
2023-01-25T10:52:32.843Z,87.18
2023-01-25T10:55:12.193Z,86.97
2023-01-25T10:57:50.354Z,87.15
2023-01-25T11:00:41.182Z,86.60
2023-01-25T11:03:22.150Z,86.63
2023-01-25T11:05:59.537Z,86.37
2023-01-25T11:08:33.105Z,86.74
2023-01-25T11:11:11.679Z,86.79
2023-01-25T11:13:41.662Z,86.64
2023-01-25T11:16:46.774Z,86.24
2023-01-25T11:19:39.052Z,85.61
2023-01-25T11:22:32.269Z,84.68
2023-01-25T11:25:18.743Z,84.67
2023-01-25T11:27:45.953Z,84.78
2023-01-25T11:30:19.376Z,84.81
2023-01-25T11:32:46.536Z,85.20
2023-01-25T11:35:27.672Z,85.44
2023-01-25T11:38:09.820Z,84.93
2023-01-25T11:40:44.347Z,84.24
2023-01-25T11:43:23.524Z,83.99
2023-01-25T11:46:02.983Z,84.39
2023-01-25T11:49:07.835Z,83.88
2023-01-25T11:51:59.195Z,84.32
2023-01-25T11:55:05.862Z,84.03
2023-01-25T11:57:50.698Z,84.06
2023-01-25T12:01:02.229Z,83.55
2023-01-25T12:03:44.121Z,82.85
2023-01-25T12:06:19.374Z,82.76
2023-01-25T12:09:10.373Z,82.79
2023-01-25T12:12:02.524Z,83.27
2023-01-25T12:15:14.386Z,81.31
2023-01-25T12:18:00.617Z,81.70
2023-01-25T12:20:31.940Z,81.70
2023-01-25T12:23:20.387Z,82.34
2023-01-25T12:26:19.901Z,82.55
2023-01-25T12:29:24.469Z,82.58
2023-01-25T12:32:24.757Z,82.53
2023-01-25T12:35:15.681Z,82.79
2023-01-25T12:37:53.287Z,82.69
2023-01-25T12:40:40.229Z,82.12
2023-01-25T12:43:17.370Z,81.41
2023-01-25T12:46:02.455Z,81.95
2023-01-25T12:48:41.445Z,82.27
2023-01-25T12:51:09.499Z,81.69
2023-01-25T12:53:49.493Z,82.12
2023-01-25T12:56:40.783Z,82.54
2023-01-25T12:59:28.114Z,81.93
2023-01-25T13:02:49.153Z,82.49
2023-01-25T13:05:37.865Z,83.09
2023-01-25T13:08:32.026Z,82.35
2023-01-25T13:11:20.738Z,82.14
2023-01-25T13:13:48.053Z,82.44
2023-01-25T13:16:30.845Z,82.49
2023-01-25T13:18:58.671Z,82.69
2023-01-25T13:21:39.548Z,82.92
2023-01-25T13:24:20.064Z,83.42
2023-01-25T13:26:49.065Z,83.13
2023-01-25T13:29:43.006Z,82.11
2023-01-25T13:32:34.866Z,82.05
2023-01-25T13:35:02.442Z,81.42
2023-01-25T13:37:34.539Z,81.25
2023-01-25T13:40:13.343Z,80.96
2023-01-25T13:42:42.827Z,81.38
2023-01-25T13:45:22.510Z,81.77
2023-01-25T13:48:09.285Z,81.67
2023-01-25T13:50:45.055Z,82.27
2023-01-25T13:53:15.342Z,82.57
2023-01-25T13:55:53.203Z,82.72
2023-01-25T13:58:24.015Z,82.61
2023-01-25T14:01:04.414Z,82.66
2023-01-25T14:03:37.451Z,83.12
2023-01-25T14:06:06.399Z,83.43
2023-01-25T14:08:39.867Z,84.01
2023-01-25T14:11:22.754Z,84.66
2023-01-25T14:14:18.788Z,84.80
2023-01-25T14:16:46.116Z,83.95
2023-01-25T14:19:26.189Z,83.72
2023-01-25T14:22:22.272Z,84.18
2023-01-25T14:25:07.959Z,84.57
2023-01-25T14:27:46.670Z,85.04
2023-01-25T14:30:27.673Z,85.50
2023-01-25T14:33:32.626Z,84.98
2023-01-25T14:36:16.461Z,84.52
2023-01-25T14:38:51.343Z,84.91
2023-01-25T14:41:30.572Z,84.84
2023-01-25T14:44:11.020Z,85.08
2023-01-25T14:46:40.521Z,85.52
2023-01-25T14:49:27.021Z,85.76
2023-01-25T14:51:59.383Z,85.79
2023-01-25T14:54:30.886Z,86.13
2023-01-25T14:57:04.701Z,86.23
2023-01-25T14:59:45.233Z,86.22
2023-01-25T15:02:43.120Z,86.00
2023-01-25T15:05:24.373Z,85.89
2023-01-25T15:08:09.336Z,85.73
2023-01-25T15:10:53.156Z,84.97
2023-01-25T15:13:28.303Z,85.52
2023-01-25T15:16:00.582Z,85.19
2023-01-25T15:18:48.648Z,85.51
2023-01-25T15:21:25.080Z,85.27
2023-01-25T15:23:57.711Z,85.51
2023-01-25T15:26:29.272Z,85.70
2023-01-25T15:29:13.837Z,85.34
2023-01-25T15:31:42.675Z,85.27
2023-01-25T15:34:19.848Z,84.97
2023-01-25T15:36:47.638Z,85.07
2023-01-25T15:39:18.041Z,84.99
2023-01-25T15:41:46.625Z,84.61
2023-01-25T15:44:15.875Z,84.33
2023-01-25T15:46:47.233Z,84.53
2023-01-25T15:49:28.289Z,84.49
2023-01-25T15:52:02.897Z,84.44
2023-01-25T15:54:30.597Z,84.55
2023-01-25T15:57:00.146Z,84.54
2023-01-25T15:59:28.553Z,84.42
2023-01-25T16:01:56.541Z,84.89
2023-01-25T16:07:06.459Z,84.62
2023-01-25T16:09:34.143Z,84.03
2023-01-25T16:12:01.768Z,84.32
2023-01-25T16:14:32.564Z,84.15
2023-01-25T16:17:06.033Z,84.30
2023-01-25T16:19:34.664Z,84.44
2023-01-25T16:22:04.801Z,84.35
2023-01-25T16:24:35.318Z,84.54
2023-01-25T16:27:02.350Z,84.75
2023-01-25T16:29:37.321Z,84.27
2023-01-25T16:32:06.842Z,84.17
2023-01-25T16:34:36.759Z,83.74
2023-01-25T16:37:03.912Z,83.45
2023-01-25T16:39:36.680Z,83.91
2023-01-25T16:42:15.283Z,83.77
2023-01-25T16:44:46.501Z,83.81
2023-01-25T16:47:16.025Z,83.76
2023-01-25T16:49:43.912Z,83.27
2023-01-25T16:52:14.218Z,83.40
2023-01-25T16:54:41.697Z,83.46
2023-01-25T16:57:20.261Z,83.81
2023-01-25T16:59:48.527Z,83.70
2023-01-25T17:05:12.772Z,83.72
2023-01-25T17:07:43.122Z,83.75
2023-01-25T17:10:11.274Z,83.64
2023-01-25T17:12:38.593Z,83.85
2023-01-25T17:15:10.371Z,84.30
2023-01-25T17:17:37.791Z,83.43
2023-01-25T17:20:12.953Z,83.55
2023-01-25T17:22:42.016Z,83.25
2023-01-25T17:25:09.436Z,83.98
2023-01-25T17:27:38.459Z,83.49
2023-01-25T17:30:06.680Z,84.19
2023-01-25T17:32:33.760Z,83.70
2023-01-25T17:35:01.521Z,83.56
2023-01-25T17:37:29.840Z,83.79
2023-01-25T17:39:57.860Z,83.75
2023-01-25T17:42:26.092Z,83.75
2023-01-25T17:44:53.416Z,84.11
2023-01-25T17:47:26.779Z,84.29
2023-01-25T17:49:54.497Z,84.45
2023-01-25T17:52:21.916Z,83.96
2023-01-25T17:54:51.366Z,84.37
2023-01-25T17:57:24.036Z,84.19
2023-01-25T18:00:16.402Z,84.19
2023-01-25T18:02:47.201Z,83.95
2023-01-25T18:05:15.874Z,84.17
2023-01-25T18:10:26.486Z,84.39
2023-01-25T18:13:04.156Z,84.03
2023-01-25T18:15:36.045Z,83.90
2023-01-25T18:18:03.178Z,84.21
2023-01-25T18:20:31.543Z,84.62
2023-01-25T18:22:59.038Z,84.82
2023-01-25T18:25:35.581Z,84.43
2023-01-25T18:28:03.532Z,84.79
2023-01-25T18:30:39.240Z,84.96
2023-01-25T18:33:07.625Z,84.42
2023-01-25T18:35:35.513Z,84.73
2023-01-25T18:38:03.021Z,84.63
2023-01-25T18:40:33.394Z,85.12
2023-01-25T18:43:00.429Z,85.55
2023-01-25T18:45:30.503Z,85.13
2023-01-25T18:48:01.564Z,85.12
2023-01-25T18:50:30.166Z,85.01
2023-01-25T18:52:57.565Z,84.97
2023-01-25T18:55:28.468Z,84.98
2023-01-25T18:58:04.514Z,85.29
2023-01-25T19:00:34.092Z,85.35
2023-01-25T19:03:06.240Z,85.75
2023-01-25T19:08:17.980Z,85.88
2023-01-25T19:10:45.508Z,85.29
2023-01-25T19:13:15.620Z,85.92
2023-01-25T19:15:43.383Z,86.38
2023-01-25T19:18:19.304Z,86.28
2023-01-25T19:20:46.983Z,86.09
2023-01-25T19:23:14.345Z,86.40
2023-01-25T19:25:44.200Z,86.33
2023-01-25T19:28:11.173Z,86.77
2023-01-25T19:30:41.091Z,86.53
2023-01-25T19:33:08.190Z,86.07
2023-01-25T19:35:35.605Z,86.07
2023-01-25T19:38:02.642Z,85.93
2023-01-25T19:40:30.029Z,86.22
2023-01-25T19:43:03.730Z,85.93
2023-01-25T19:45:56.676Z,85.57
2023-01-25T19:48:24.556Z,85.77
2023-01-25T19:50:51.625Z,86.20
2023-01-25T19:53:23.798Z,86.09
2023-01-25T19:55:51.435Z,87.12
2023-01-25T19:58:26.880Z,86.93
2023-01-25T20:00:55.163Z,86.79
2023-01-25T20:03:23.003Z,86.62
2023-01-25T20:06:00.093Z,86.36
2023-01-25T20:08:32.023Z,86.59
2023-01-25T20:11:01.087Z,87.02
2023-01-25T20:13:29.314Z,86.68
2023-01-25T20:15:57.525Z,87.09
2023-01-25T20:18:24.940Z,86.96
2023-01-25T20:21:03.877Z,86.99
2023-01-25T20:23:33.783Z,87.75
2023-01-25T20:26:09.261Z,87.66
2023-01-25T20:28:37.376Z,87.69
2023-01-25T20:31:04.749Z,87.48
2023-01-25T20:33:33.645Z,87.90
2023-01-25T20:36:06.436Z,87.90
2023-01-25T20:38:35.697Z,87.55
2023-01-25T20:41:05.590Z,88.00
2023-01-25T20:43:35.558Z,87.75
2023-01-25T20:46:02.963Z,87.67
2023-01-25T20:48:36.310Z,87.69
2023-01-25T20:51:05.287Z,87.55
2023-01-25T20:53:33.781Z,88.00
2023-01-25T20:56:01.261Z,87.79
2023-01-25T20:58:29.382Z,88.13
2023-01-25T21:00:57.421Z,87.82
2023-01-25T21:03:25.493Z,88.14
2023-01-25T21:05:54.252Z,87.86
2023-01-25T21:08:26.219Z,87.84
2023-01-25T21:11:00.233Z,87.81
2023-01-25T21:13:29.473Z,87.67
2023-01-25T21:16:07.753Z,87.71
2023-01-25T21:18:40.772Z,87.54
2023-01-25T21:21:11.911Z,87.49
2023-01-25T21:23:42.133Z,87.77
2023-01-25T21:26:14.325Z,87.78
2023-01-25T21:28:42.100Z,87.35
2023-01-25T21:31:17.737Z,87.64
2023-01-25T21:33:45.643Z,87.41
2023-01-25T21:36:16.432Z,87.73
2023-01-25T21:38:49.195Z,87.19
2023-01-25T21:41:26.697Z,87.39
2023-01-25T21:44:14.518Z,87.67
2023-01-25T21:46:51.411Z,87.21
2023-01-25T21:49:46.626Z,87.57
2023-01-25T21:52:16.004Z,87.31
2023-01-25T21:54:45.971Z,87.30
2023-01-25T21:57:13.082Z,87.56
2023-01-25T21:59:41.078Z,87.62
2023-01-25T22:02:12.376Z,87.41
2023-01-25T22:04:40.180Z,87.42
2023-01-25T22:07:12.038Z,87.15
2023-01-25T22:09:40.010Z,87.39
2023-01-25T22:12:07.070Z,87.18
2023-01-25T22:14:34.980Z,87.30
2023-01-25T22:17:05.194Z,87.45
2023-01-25T22:19:33.463Z,87.33
2023-01-25T22:22:00.638Z,87.16
2023-01-25T22:24:28.012Z,87.88
2023-01-25T22:27:15.865Z,87.72
2023-01-25T22:29:43.255Z,87.31
2023-01-25T22:32:13.176Z,87.82
2023-01-25T22:34:40.632Z,87.70
2023-01-25T22:37:11.330Z,87.92
2023-01-25T22:39:39.095Z,87.72
2023-01-25T22:42:06.241Z,88.08
2023-01-25T22:44:33.534Z,88.03
2023-01-25T22:47:04.064Z,88.60
2023-01-25T22:49:32.069Z,88.70
2023-01-25T22:52:03.474Z,88.73
2023-01-25T22:54:30.813Z,88.68
2023-01-25T22:57:00.712Z,88.46
2023-01-25T22:59:28.505Z,88.91
2023-01-25T23:01:55.922Z,88.57
2023-01-25T23:04:23.331Z,88.92
2023-01-25T23:06:50.438Z,88.84
2023-01-25T23:09:17.751Z,88.47
2023-01-25T23:11:44.712Z,88.70
2023-01-25T23:14:31.528Z,88.64
2023-01-25T23:17:17.601Z,88.33
2023-01-25T23:19:46.049Z,88.51
2023-01-25T23:22:13.349Z,88.50
2023-01-25T23:24:40.816Z,88.51
2023-01-25T23:27:07.726Z,88.54
2023-01-25T23:29:35.012Z,88.76
2023-01-25T23:32:02.160Z,88.92
2023-01-25T23:34:34.689Z,88.83
2023-01-25T23:37:01.696Z,88.97
2023-01-25T23:39:29.089Z,89.12
2023-01-25T23:42:00.104Z,89.05
2023-01-25T23:44:28.066Z,89.37
2023-01-25T23:46:56.286Z,89.42
2023-01-25T23:49:23.574Z,89.30
2023-01-25T23:51:50.582Z,88.98
2023-01-25T23:54:17.972Z,89.35
2023-01-25T23:56:44.935Z,89.46
2023-01-25T23:59:12.246Z,89.28
